createdAt,value
2019-03-15T00:01:44.960Z,14.40
2019-03-15T00:04:12.255Z,14.13
2019-03-15T00:06:39.605Z,14.35
2019-03-15T00:09:07.587Z,14.05
2019-03-15T00:11:34.866Z,13.80
2019-03-15T00:14:02.156Z,13.58
2019-03-15T00:16:29.458Z,12.13
2019-03-15T00:18:56.885Z,13.32
2019-03-15T00:21:24.275Z,13.75
2019-03-15T00:23:51.561Z,12.75
2019-03-15T00:26:18.828Z,14.15
2019-03-15T00:28:46.128Z,16.10
2019-03-15T00:31:13.469Z,14.10
2019-03-15T00:33:40.789Z,12.45
2019-03-15T00:36:08.067Z,13.13
2019-03-15T00:38:35.426Z,13.62
2019-03-15T00:41:02.733Z,12.98
2019-03-15T00:43:30.101Z,14.53
2019-03-15T00:45:57.378Z,12.07
2019-03-15T00:48:24.697Z,12.90
2019-03-15T00:50:51.985Z,12.78
2019-03-15T00:53:19.253Z,11.95
2019-03-15T00:55:46.543Z,12.25
2019-03-15T00:58:13.827Z,11.63
2019-03-15T01:00:41.145Z,12.33
2019-03-15T01:03:08.444Z,12.53
2019-03-15T01:05:35.802Z,12.28
2019-03-15T01:08:03.091Z,12.00
2019-03-15T01:10:31.403Z,12.33
2019-03-15T01:12:58.788Z,11.97
2019-03-15T01:15:26.080Z,11.20
2019-03-15T01:17:53.363Z,13.95
2019-03-15T01:20:20.653Z,13.32
2019-03-15T01:22:47.938Z,11.63
2019-03-15T01:25:15.751Z,11.57
2019-03-15T01:27:43.033Z,11.43
2019-03-15T01:30:11.596Z,13.00
2019-03-15T01:32:38.951Z,12.07
2019-03-15T01:35:07.119Z,12.03
2019-03-15T01:37:34.413Z,12.78
2019-03-15T01:40:01.706Z,10.72
2019-03-15T01:42:28.994Z,11.43
2019-03-15T01:44:58.678Z,11.55
2019-03-15T01:47:25.988Z,10.60
2019-03-15T01:49:53.286Z,11.20
2019-03-15T01:52:20.651Z,9.73
2019-03-15T01:54:48.048Z,10.70
2019-03-15T01:57:15.422Z,12.18
2019-03-15T01:59:42.765Z,12.30
2019-03-15T02:02:10.059Z,12.15
2019-03-15T02:04:37.333Z,11.57
2019-03-15T02:07:04.639Z,11.50
2019-03-15T02:09:31.977Z,11.45
2019-03-15T02:11:59.269Z,11.55
2019-03-15T02:14:27.631Z,10.48
2019-03-15T02:16:55.019Z,10.68
2019-03-15T02:19:22.566Z,11.00
2019-03-15T02:21:49.854Z,11.55
2019-03-15T02:24:17.177Z,10.28
2019-03-15T02:26:44.465Z,10.38
2019-03-15T02:29:11.810Z,9.48
2019-03-15T02:31:39.107Z,11.25
2019-03-15T02:34:06.463Z,11.15
2019-03-15T02:36:33.823Z,10.90
2019-03-15T02:39:02.925Z,10.90
2019-03-15T02:41:30.377Z,11.10
2019-03-15T02:43:57.939Z,10.70
2019-03-15T02:46:25.842Z,11.28
2019-03-15T02:48:53.516Z,12.78
2019-03-15T02:51:20.793Z,9.93
2019-03-15T02:53:48.151Z,11.60
2019-03-15T02:56:15.442Z,10.78
2019-03-15T02:58:42.787Z,10.63
2019-03-15T03:01:10.142Z,11.40
2019-03-15T03:03:37.456Z,8.90
2019-03-15T03:06:04.741Z,10.20
2019-03-15T03:08:32.094Z,10.53
2019-03-15T03:11:02.448Z,10.35
2019-03-15T03:13:29.721Z,10.05
2019-03-15T03:15:57.013Z,11.90
2019-03-15T03:18:24.303Z,10.50
2019-03-15T03:20:51.699Z,9.83
2019-03-15T03:23:19.008Z,10.38
2019-03-15T03:25:46.374Z,9.75
2019-03-15T03:28:13.759Z,10.75
2019-03-15T03:30:41.162Z,10.08
2019-03-15T03:33:08.516Z,9.78
2019-03-15T03:35:35.854Z,9.28
2019-03-15T03:38:03.154Z,9.48
2019-03-15T03:40:30.640Z,10.70
2019-03-15T03:42:58.209Z,9.08
2019-03-15T03:45:25.564Z,10.05
2019-03-15T03:47:52.901Z,9.00
2019-03-15T03:50:20.196Z,9.40
2019-03-15T03:52:47.567Z,11.38
2019-03-15T03:55:14.856Z,9.78
2019-03-15T03:57:42.223Z,8.23
2019-03-15T04:00:11.110Z,9.93
2019-03-15T04:02:38.562Z,9.73
2019-03-15T04:05:06.130Z,9.05
2019-03-15T04:07:33.411Z,9.83
2019-03-15T04:10:00.696Z,8.78
2019-03-15T04:12:28.078Z,8.18
2019-03-15T04:14:55.355Z,9.00
2019-03-15T04:17:22.637Z,9.65
2019-03-15T04:19:50.511Z,9.25
2019-03-15T04:22:18.176Z,8.95
2019-03-15T04:24:45.463Z,9.13
2019-03-15T04:27:12.737Z,8.20
2019-03-15T04:29:40.041Z,8.83
2019-03-15T04:32:07.337Z,9.23
2019-03-15T04:34:34.678Z,8.40
2019-03-15T04:37:02.022Z,7.90
2019-03-15T04:39:29.362Z,7.72
2019-03-15T04:41:56.647Z,9.63
2019-03-15T04:44:23.971Z,8.73
2019-03-15T04:46:51.255Z,8.48
2019-03-15T04:49:18.536Z,7.35
2019-03-15T04:51:45.815Z,9.05
2019-03-15T04:54:13.095Z,8.43
2019-03-15T04:56:40.372Z,8.30
2019-03-15T04:59:07.654Z,8.68
2019-03-15T05:01:34.974Z,8.10
2019-03-15T05:04:02.255Z,9.33
2019-03-15T05:06:29.547Z,8.73
2019-03-15T05:08:56.836Z,8.98
2019-03-15T05:11:24.171Z,7.17
2019-03-15T05:13:51.488Z,7.10
2019-03-15T05:16:18.766Z,8.18
2019-03-15T05:18:46.063Z,9.33
2019-03-15T05:21:13.374Z,9.03
2019-03-15T05:23:40.652Z,8.60
2019-03-15T05:26:08.125Z,8.68
2019-03-15T05:28:35.407Z,8.13
2019-03-15T05:31:02.758Z,7.37
2019-03-15T05:33:30.071Z,7.62
2019-03-15T05:35:57.435Z,7.90
2019-03-15T05:38:24.723Z,6.95
2019-03-15T05:40:52.697Z,7.12
2019-03-15T05:43:20.045Z,7.10
2019-03-15T05:45:47.432Z,10.50
2019-03-15T05:48:14.805Z,7.30
2019-03-15T05:50:42.123Z,6.83
2019-03-15T05:53:09.534Z,7.62
2019-03-15T05:55:36.859Z,7.35
2019-03-15T05:58:04.148Z,6.47
2019-03-15T06:00:31.430Z,7.95
2019-03-15T06:02:58.706Z,7.08
2019-03-15T06:05:26.002Z,8.23
2019-03-15T06:07:53.339Z,9.25
2019-03-15T06:10:20.634Z,7.60
2019-03-15T06:12:48.005Z,7.05
2019-03-15T06:15:15.287Z,7.42
2019-03-15T06:17:42.771Z,7.22
2019-03-15T06:20:11.864Z,6.83
2019-03-15T06:22:39.218Z,7.58
2019-03-15T06:25:07.481Z,7.05
2019-03-15T06:27:34.834Z,7.00
2019-03-15T06:30:02.204Z,7.42
2019-03-15T06:32:29.547Z,6.25
2019-03-15T06:34:56.841Z,6.50
2019-03-15T06:37:24.213Z,7.55
2019-03-15T06:39:51.498Z,6.65
2019-03-15T06:42:18.852Z,7.25
2019-03-15T06:44:57.394Z,9.13
2019-03-15T06:47:15.232Z,7.55
2019-03-15T06:49:42.524Z,6.50
2019-03-15T06:52:09.874Z,6.78
2019-03-15T06:54:37.185Z,7.00
2019-03-15T06:57:04.481Z,6.03
2019-03-15T06:59:31.766Z,6.87
2019-03-15T07:01:59.036Z,6.87
2019-03-15T07:04:26.394Z,6.28
2019-03-15T07:06:53.747Z,34.58
2019-03-15T07:09:21.090Z,145.35
2019-03-15T07:11:48.585Z,190.88
2019-03-15T07:14:16.028Z,135.88
2019-03-15T07:16:43.584Z,81.90
2019-03-15T07:19:10.996Z,68.95
2019-03-15T07:21:38.337Z,68.72
2019-03-15T07:24:05.635Z,60.73
2019-03-15T07:26:33.380Z,69.22
2019-03-15T07:29:00.682Z,58.90
2019-03-15T07:31:28.050Z,60.43
2019-03-15T07:33:55.362Z,43.17
2019-03-15T07:36:22.660Z,35.20
2019-03-15T07:38:51.031Z,33.42
2019-03-15T07:41:18.322Z,26.77
2019-03-15T07:43:45.739Z,23.52
2019-03-15T07:46:13.220Z,21.93
2019-03-15T07:48:40.576Z,19.52
2019-03-15T07:51:07.922Z,18.73
2019-03-15T07:53:35.643Z,15.90
2019-03-15T07:56:03.082Z,12.88
2019-03-15T07:58:30.352Z,14.45
2019-03-15T08:00:57.649Z,16.93
2019-03-15T08:03:24.925Z,10.32
2019-03-15T08:05:52.217Z,12.58
2019-03-15T08:08:19.512Z,10.60
2019-03-15T08:10:46.811Z,10.78
2019-03-15T08:13:14.180Z,10.48
2019-03-15T08:15:41.533Z,7.92
2019-03-15T08:18:09.201Z,7.75
2019-03-15T08:20:36.613Z,7.10
2019-03-15T08:23:03.891Z,9.13
2019-03-15T08:25:31.181Z,6.62
2019-03-15T08:27:58.475Z,7.15
2019-03-15T08:30:25.766Z,6.37
2019-03-15T08:32:53.123Z,6.20
2019-03-15T08:35:20.404Z,6.87
2019-03-15T08:37:48.069Z,7.80
2019-03-15T08:40:15.364Z,7.40
2019-03-15T08:42:42.721Z,6.15
2019-03-15T08:45:22.081Z,6.33
2019-03-15T08:47:49.433Z,7.53
2019-03-15T08:50:20.144Z,6.53
2019-03-15T08:52:47.484Z,5.47
2019-03-15T08:55:14.849Z,5.50
2019-03-15T08:57:42.195Z,4.92
2019-03-15T09:00:13.834Z,5.55
2019-03-15T09:02:41.171Z,5.22
2019-03-15T09:05:09.810Z,6.40
2019-03-15T09:07:37.101Z,5.30
2019-03-15T09:10:06.256Z,7.17
2019-03-15T09:12:33.619Z,6.25
2019-03-15T09:15:00.977Z,7.67
2019-03-15T09:17:28.342Z,5.20
2019-03-15T09:19:55.621Z,5.33
2019-03-15T09:22:22.920Z,4.90
2019-03-15T09:24:50.262Z,5.08
2019-03-15T09:27:17.649Z,5.87
2019-03-15T09:29:44.927Z,6.28
2019-03-15T09:32:12.207Z,5.58
2019-03-15T09:34:39.499Z,5.03
2019-03-15T09:37:06.798Z,6.95
2019-03-15T09:39:34.142Z,5.78
2019-03-15T09:42:01.425Z,5.70
2019-03-15T09:44:28.738Z,5.62
2019-03-15T09:46:56.103Z,6.03
2019-03-15T09:49:23.368Z,5.03
2019-03-15T09:51:50.981Z,5.70
2019-03-15T09:54:18.314Z,4.67
2019-03-15T09:56:45.598Z,4.97
2019-03-15T09:59:12.870Z,5.17
2019-03-15T10:01:40.157Z,5.03
2019-03-15T10:04:07.440Z,4.47
2019-03-15T10:06:34.718Z,4.22
2019-03-15T10:09:02.011Z,4.85
2019-03-15T10:11:29.357Z,4.35
2019-03-15T10:13:56.647Z,4.78
2019-03-15T10:16:23.999Z,4.67
2019-03-15T10:18:51.302Z,3.58
2019-03-15T10:21:18.702Z,4.00
2019-03-15T10:23:46.037Z,4.50
2019-03-15T10:26:14.987Z,4.42
2019-03-15T10:28:42.328Z,5.28
2019-03-15T10:31:09.592Z,3.95
2019-03-15T10:33:49.613Z,4.72
2019-03-15T10:36:05.899Z,4.20
2019-03-15T10:38:33.289Z,5.03
2019-03-15T10:41:01.378Z,5.65
2019-03-15T10:43:28.923Z,4.95
2019-03-15T10:45:56.207Z,5.30
2019-03-15T10:48:25.385Z,5.55
2019-03-15T10:50:52.539Z,6.55
2019-03-15T10:53:19.950Z,5.53
2019-03-15T10:55:59.477Z,6.17
2019-03-15T10:58:16.287Z,6.67
2019-03-15T11:00:43.565Z,6.92
2019-03-15T11:03:13.097Z,6.65
2019-03-15T11:05:39.887Z,5.85
2019-03-15T11:08:07.170Z,5.33
2019-03-15T11:10:34.479Z,5.97
2019-03-15T11:13:01.753Z,6.22
2019-03-15T11:15:29.182Z,6.10
2019-03-15T11:17:56.563Z,5.90
2019-03-15T11:20:23.905Z,4.97
2019-03-15T11:22:51.215Z,5.12
2019-03-15T11:25:18.497Z,6.08
2019-03-15T11:27:45.768Z,5.75
2019-03-15T11:30:13.548Z,4.70
2019-03-15T11:32:41.087Z,6.15
2019-03-15T11:35:09.048Z,5.67
2019-03-15T11:37:36.393Z,5.35
2019-03-15T11:40:05.580Z,6.97
2019-03-15T11:42:32.871Z,5.67
2019-03-15T11:45:00.453Z,4.60
2019-03-15T11:47:27.984Z,5.22
2019-03-15T11:49:55.804Z,4.35
2019-03-15T11:52:23.274Z,4.97
2019-03-15T11:54:50.564Z,5.05
2019-03-15T11:57:17.874Z,4.62
2019-03-15T11:59:45.264Z,3.67
2019-03-15T12:02:12.613Z,3.58
2019-03-15T12:04:39.977Z,3.62
2019-03-15T12:07:10.240Z,3.70
2019-03-15T12:09:36.403Z,4.17
2019-03-15T12:12:03.987Z,5.50
2019-03-15T12:14:40.774Z,3.50
2019-03-15T12:17:00.362Z,5.85
2019-03-15T12:19:27.651Z,4.60
2019-03-15T12:22:05.695Z,4.78
2019-03-15T12:24:23.958Z,4.22
2019-03-15T12:26:51.298Z,4.65
2019-03-15T12:29:18.593Z,3.95
2019-03-15T12:31:45.959Z,4.80
2019-03-15T12:34:13.368Z,4.90
2019-03-15T12:36:40.636Z,4.72
2019-03-15T12:39:08.239Z,4.10
2019-03-15T12:41:35.602Z,3.83
2019-03-15T12:44:02.887Z,3.95
2019-03-15T12:46:30.422Z,5.47
2019-03-15T12:48:57.783Z,3.70
2019-03-15T12:51:32.023Z,3.77
2019-03-15T12:53:54.092Z,4.65
2019-03-15T12:56:21.371Z,5.55
2019-03-15T12:58:48.656Z,4.45
2019-03-15T13:01:15.958Z,4.25
2019-03-15T13:03:43.305Z,4.35
2019-03-15T13:06:10.656Z,3.98
2019-03-15T13:08:37.934Z,3.70
2019-03-15T13:11:05.251Z,3.92
2019-03-15T13:13:32.544Z,4.47
2019-03-15T13:16:00.139Z,5.03
2019-03-15T13:18:27.442Z,4.03
2019-03-15T13:20:54.794Z,4.08
2019-03-15T13:23:22.099Z,3.72
2019-03-15T13:25:49.402Z,3.98
2019-03-15T13:28:16.691Z,3.17
2019-03-15T13:30:44.048Z,5.00
2019-03-15T13:33:20.475Z,3.40
2019-03-15T13:35:40.410Z,3.90
2019-03-15T13:38:07.884Z,3.22
2019-03-15T13:40:35.165Z,3.92
2019-03-15T13:43:02.483Z,3.52
2019-03-15T13:45:29.787Z,3.40
2019-03-15T13:47:57.129Z,3.70
2019-03-15T13:50:24.563Z,3.85
2019-03-15T13:52:51.920Z,6.87
2019-03-15T13:55:19.260Z,4.03
2019-03-15T13:57:46.542Z,4.17
2019-03-15T14:00:14.607Z,3.98
2019-03-15T14:02:41.970Z,4.15
2019-03-15T14:05:09.575Z,3.47
2019-03-15T14:07:36.895Z,2.98
2019-03-15T14:10:06.040Z,3.30
2019-03-15T14:12:33.331Z,2.80
2019-03-15T14:15:00.621Z,3.15
2019-03-15T14:17:27.965Z,3.12
2019-03-15T14:19:55.258Z,3.40
2019-03-15T14:22:22.545Z,3.83
2019-03-15T14:24:49.913Z,5.87
2019-03-15T14:27:17.204Z,4.17
2019-03-15T14:29:44.546Z,3.98
2019-03-15T14:32:11.874Z,4.50
2019-03-15T14:34:39.216Z,4.35
2019-03-15T14:37:09.016Z,6.40
2019-03-15T14:39:35.746Z,4.60
2019-03-15T14:42:03.292Z,4.08
2019-03-15T14:44:30.628Z,4.65
2019-03-15T14:46:57.963Z,4.33
2019-03-15T14:49:25.309Z,3.83
2019-03-15T14:51:52.593Z,4.97
2019-03-15T14:54:19.929Z,5.60
2019-03-15T14:56:47.209Z,5.12
2019-03-15T14:59:14.539Z,4.28
2019-03-15T15:01:41.883Z,5.58
2019-03-15T15:04:09.165Z,4.35
2019-03-15T15:06:36.436Z,5.78
2019-03-15T15:09:05.009Z,5.15
2019-03-15T15:11:32.291Z,4.33
2019-03-15T15:13:59.579Z,4.67
2019-03-15T15:16:26.934Z,4.12
2019-03-15T15:18:54.216Z,4.30
2019-03-15T15:21:21.746Z,5.28
2019-03-15T15:23:49.131Z,5.10
2019-03-15T15:26:16.488Z,5.35
2019-03-15T15:28:43.773Z,5.08
2019-03-15T15:31:11.169Z,5.17
2019-03-15T15:33:38.452Z,5.05
2019-03-15T15:36:05.755Z,4.55
2019-03-15T15:38:33.055Z,4.87
2019-03-15T15:41:00.400Z,5.12
2019-03-15T15:43:27.678Z,4.97
2019-03-15T15:45:54.992Z,6.15
2019-03-15T15:48:22.322Z,4.20
2019-03-15T15:50:49.596Z,4.15
2019-03-15T15:53:16.918Z,5.12
2019-03-15T15:55:44.203Z,5.28
2019-03-15T15:58:17.717Z,7.22
2019-03-15T16:00:40.613Z,3.85
2019-03-15T16:03:07.961Z,4.85
2019-03-15T16:05:35.254Z,4.22
2019-03-15T16:08:02.665Z,4.10
2019-03-15T16:10:30.037Z,4.50
2019-03-15T16:12:57.476Z,5.37
2019-03-15T16:15:24.818Z,4.30
2019-03-15T16:17:52.225Z,4.30
2019-03-15T16:20:19.495Z,4.92
2019-03-15T16:22:46.763Z,5.55
2019-03-15T16:25:14.070Z,4.97
2019-03-15T16:27:41.461Z,5.50
2019-03-15T16:30:15.451Z,6.28
2019-03-15T16:32:42.741Z,7.80
2019-03-15T16:35:11.278Z,6.75
2019-03-15T16:37:38.686Z,6.10
2019-03-15T16:40:07.439Z,5.33
2019-03-15T16:42:34.746Z,8.63
2019-03-15T16:45:02.067Z,8.13
2019-03-15T16:47:29.418Z,5.65
2019-03-15T16:49:56.703Z,10.72
2019-03-15T16:52:24.066Z,15.18
2019-03-15T16:54:51.351Z,19.05
2019-03-15T16:57:18.634Z,17.12
2019-03-15T16:59:45.952Z,13.25
2019-03-15T17:02:13.336Z,10.70
2019-03-15T17:04:40.622Z,14.50
2019-03-15T17:07:07.961Z,14.43
2019-03-15T17:09:35.319Z,11.43
2019-03-15T17:12:02.681Z,13.08
2019-03-15T17:14:30.037Z,14.38
2019-03-15T17:16:57.370Z,12.05
2019-03-15T17:19:24.761Z,12.73
2019-03-15T17:21:52.114Z,21.73
2019-03-15T17:24:19.397Z,10.48
2019-03-15T17:26:46.773Z,13.00
2019-03-15T17:29:14.054Z,9.15
2019-03-15T17:31:41.353Z,7.92
2019-03-15T17:34:08.717Z,12.93
2019-03-15T17:36:36.010Z,10.90
2019-03-15T17:39:04.677Z,13.28
2019-03-15T17:41:31.958Z,8.23
2019-03-15T17:43:59.244Z,11.95
2019-03-15T17:46:26.727Z,8.58
2019-03-15T17:48:54.055Z,10.05
2019-03-15T17:51:21.390Z,13.15
2019-03-15T17:53:48.720Z,8.95
2019-03-15T17:56:16.016Z,11.20
2019-03-15T17:58:43.386Z,7.28
2019-03-15T18:01:10.753Z,9.28
2019-03-15T18:03:38.087Z,8.25
2019-03-15T18:06:05.822Z,8.95
2019-03-15T18:08:33.125Z,7.97
2019-03-15T18:11:00.431Z,10.45
2019-03-15T18:13:27.813Z,8.98
2019-03-15T18:15:55.195Z,6.83
2019-03-15T18:18:22.541Z,13.98
2019-03-15T18:20:49.862Z,10.48
2019-03-15T18:23:17.425Z,9.28
2019-03-15T18:25:44.693Z,8.53
2019-03-15T18:28:11.978Z,8.85
2019-03-15T18:30:39.267Z,7.45
2019-03-15T18:33:06.545Z,8.33
2019-03-15T18:35:34.370Z,9.33
2019-03-15T18:38:01.946Z,12.45
2019-03-15T18:40:29.349Z,11.10
2019-03-15T18:42:56.704Z,8.65
2019-03-15T18:45:24.014Z,9.43
2019-03-15T18:47:51.298Z,10.23
2019-03-15T18:50:19.993Z,9.33
2019-03-15T18:52:47.339Z,8.73
2019-03-15T18:55:14.630Z,8.80
2019-03-15T18:57:41.994Z,9.58
2019-03-15T19:00:11.129Z,8.35
2019-03-15T19:02:38.469Z,10.30
2019-03-15T19:05:07.139Z,13.58
2019-03-15T19:07:34.470Z,17.35
2019-03-15T19:10:01.966Z,13.98
2019-03-15T19:12:29.322Z,12.50
2019-03-15T19:14:56.609Z,14.68
2019-03-15T19:17:23.905Z,12.60
2019-03-15T19:19:51.243Z,12.65
2019-03-15T19:22:18.527Z,14.58
2019-03-15T19:24:46.051Z,13.88
2019-03-15T19:27:13.359Z,13.78
2019-03-15T19:29:53.060Z,12.35
2019-03-15T19:32:09.983Z,11.65
2019-03-15T19:34:37.357Z,11.28
2019-03-15T19:37:04.666Z,14.28
2019-03-15T19:39:32.036Z,11.88
2019-03-15T19:41:59.340Z,13.85
2019-03-15T19:44:26.720Z,12.20
2019-03-15T19:46:53.999Z,13.00
2019-03-15T19:49:21.367Z,15.15
2019-03-15T19:51:48.762Z,15.53
2019-03-15T19:54:16.077Z,14.55
2019-03-15T19:56:43.556Z,13.98
2019-03-15T19:59:10.966Z,11.97
2019-03-15T20:01:38.280Z,12.68
2019-03-15T20:04:05.648Z,11.35
2019-03-15T20:06:32.994Z,12.43
2019-03-15T20:09:00.309Z,12.93
2019-03-15T20:11:27.592Z,12.10
2019-03-15T20:13:54.874Z,12.15
2019-03-15T20:16:22.153Z,11.15
2019-03-15T20:18:49.437Z,10.38
2019-03-15T20:21:16.770Z,11.75
2019-03-15T20:23:44.141Z,12.28
2019-03-15T20:26:11.516Z,10.82
2019-03-15T20:28:38.818Z,12.53
2019-03-15T20:31:06.182Z,11.28
2019-03-15T20:33:33.492Z,9.95
2019-03-15T20:36:00.783Z,10.68
2019-03-15T20:38:28.144Z,10.40
2019-03-15T20:40:55.422Z,10.68
2019-03-15T20:43:22.714Z,11.03
2019-03-15T20:45:50.230Z,11.05
2019-03-15T20:48:17.586Z,9.40
2019-03-15T20:50:47.079Z,11.18
2019-03-15T20:53:13.946Z,11.00
2019-03-15T20:55:41.398Z,11.33
2019-03-15T20:58:08.960Z,9.98
2019-03-15T21:00:36.461Z,9.85
2019-03-15T21:03:04.176Z,10.00
2019-03-15T21:05:31.482Z,10.85
2019-03-15T21:07:59.887Z,10.35
2019-03-15T21:10:27.379Z,9.30
2019-03-15T21:12:54.758Z,10.82
2019-03-15T21:15:22.175Z,10.25
2019-03-15T21:17:49.462Z,9.73
2019-03-15T21:20:17.291Z,9.08
2019-03-15T21:22:44.680Z,10.85
2019-03-15T21:25:12.033Z,11.48
2019-03-15T21:27:52.582Z,10.05
2019-03-15T21:30:10.275Z,10.50
2019-03-15T21:32:37.652Z,10.43
2019-03-15T21:35:06.435Z,9.70
2019-03-15T21:37:33.726Z,11.43
2019-03-15T21:40:01.141Z,10.55
2019-03-15T21:42:28.509Z,12.82
2019-03-15T21:44:55.799Z,11.70
2019-03-15T21:47:23.087Z,10.72
2019-03-15T21:49:50.392Z,13.75
2019-03-15T21:52:17.758Z,11.75
2019-03-15T21:54:45.127Z,11.40
2019-03-15T21:57:12.606Z,12.58
2019-03-15T21:59:39.897Z,10.75
2019-03-15T22:02:07.242Z,13.25
2019-03-15T22:04:34.527Z,14.60
2019-03-15T22:07:01.839Z,11.88
2019-03-15T22:09:29.120Z,9.25
2019-03-15T22:11:56.402Z,12.90
2019-03-15T22:14:23.690Z,9.88
2019-03-15T22:16:51.042Z,9.78
2019-03-15T22:19:18.336Z,12.28
2019-03-15T22:21:45.700Z,14.33
2019-03-15T22:24:13.010Z,12.85
2019-03-15T22:26:40.298Z,9.93
2019-03-15T22:29:07.691Z,9.48
2019-03-15T22:31:34.966Z,11.43
2019-03-15T22:34:02.285Z,11.43
2019-03-15T22:36:29.652Z,10.95
2019-03-15T22:38:56.939Z,9.08
2019-03-15T22:41:24.213Z,11.33
2019-03-15T22:43:51.485Z,9.75
2019-03-15T22:46:18.851Z,10.25
2019-03-15T22:48:46.175Z,9.78
2019-03-15T22:51:13.536Z,10.75
2019-03-15T22:53:40.828Z,10.80
2019-03-15T22:56:08.112Z,9.90
2019-03-15T22:58:35.408Z,10.25
2019-03-15T23:01:02.861Z,9.15
2019-03-15T23:03:30.220Z,9.75
2019-03-15T23:05:57.576Z,9.60
2019-03-15T23:08:24.927Z,8.93
2019-03-15T23:10:52.249Z,10.23
2019-03-15T23:13:19.874Z,9.60
2019-03-15T23:15:47.149Z,8.45
2019-03-15T23:18:14.471Z,9.53
2019-03-15T23:20:41.820Z,9.13
2019-03-15T23:23:09.097Z,7.87
2019-03-15T23:25:36.462Z,6.92
2019-03-15T23:28:04.142Z,5.97
2019-03-15T23:30:31.524Z,5.30
2019-03-15T23:32:58.809Z,6.37
2019-03-15T23:35:26.162Z,5.12
2019-03-15T23:37:53.485Z,6.15
2019-03-15T23:40:20.753Z,6.25
2019-03-15T23:42:48.044Z,4.15
2019-03-15T23:45:15.369Z,5.05
2019-03-15T23:47:42.716Z,4.78
2019-03-15T23:50:11.065Z,5.30
2019-03-15T23:52:38.371Z,4.80
2019-03-15T23:55:06.496Z,4.83
2019-03-15T23:57:33.819Z,4.15
